Time;durP1;ratioP1;P1;durP2;ratioP2;P2;SDS_P1;SDS_P2;PMS_P1;PMS_P2;Temp;Humidity;BMP_temperature;BMP_pressure;BME280_temperature;BME280_humidity;BME280_pressure;Samples;Min_cycle;Max_cycle;Signal;HPM_P1;HPM_P2
2021/01/20 00:01:58;;;;;;;131.57;66.17;;;2.40;99.90;;;;;;5052656;28;20447;-82
2021/01/20 00:04:24;;;;;;;124.93;64.00;;;2.40;99.90;;;;;;5034593;28;20690;-80
2021/01/20 00:06:50;;;;;;;134.73;66.10;;;2.50;99.90;;;;;;5048301;28;20421;-81
2021/01/20 00:09:16;;;;;;;129.87;64.43;;;2.50;99.90;;;;;;5060716;28;20483;-80
2021/01/20 00:11:42;;;;;;;134.30;66.87;;;2.50;99.90;;;;;;5054277;28;20043;-80
2021/01/20 00:14:07;;;;;;;134.97;67.43;;;2.50;99.90;;;;;;5071818;28;20020;-81
2021/01/20 00:16:33;;;;;;;132.83;65.67;;;2.40;99.90;;;;;;5054444;28;20051;-79
2021/01/20 00:18:58;;;;;;;139.13;67.50;;;2.40;99.90;;;;;;5053944;28;20070;-80
2021/01/20 00:21:24;;;;;;;134.83;68.33;;;2.40;99.90;;;;;;5064788;28;20024;-81
2021/01/20 00:23:50;;;;;;;137.07;68.47;;;2.40;99.90;;;;;;5062077;28;20271;-82
2021/01/20 00:26:16;;;;;;;136.17;67.77;;;2.40;99.90;;;;;;5091821;28;20027;-81
2021/01/20 00:28:42;;;;;;;137.07;67.97;;;2.40;99.90;;;;;;5092339;28;20024;-81
2021/01/20 00:31:08;;;;;;;130.37;66.63;;;2.40;99.90;;;;;;5091915;28;20074;-79
2021/01/20 00:33:33;;;;;;;133.33;67.97;;;2.50;99.90;;;;;;5076065;28;20078;-82
2021/01/20 00:35:59;;;;;;;136.33;69.27;;;2.50;99.90;;;;;;5075933;28;20048;-82
2021/01/20 00:38:25;;;;;;;132.67;69.07;;;2.50;99.90;;;;;;5094499;28;20309;-82
2021/01/20 00:40:51;;;;;;;131.90;67.57;;;2.50;99.90;;;;;;5086419;28;20078;-82
2021/01/20 00:43:16;;;;;;;145.17;70.17;;;2.50;99.90;;;;;;5056019;28;20031;-82
2021/01/20 00:45:42;;;;;;;139.83;70.27;;;2.40;99.90;;;;;;5056173;28;20021;-82
2021/01/20 00:48:11;;;;;;;141.97;72.70;;;2.40;99.90;;;;;;5073883;28;20099;-82
2021/01/20 00:50:38;;;;;;;147.57;71.27;;;2.30;99.90;;;;;;5062480;28;20483;-82
2021/01/20 00:53:04;;;;;;;143.93;70.83;;;2.30;99.90;;;;;;5036108;28;20029;-82
2021/01/20 00:55:29;;;;;;;141.47;70.93;;;2.30;99.90;;;;;;5054860;28;20036;-82
2021/01/20 00:57:55;;;;;;;132.97;67.87;;;2.30;99.90;;;;;;5073801;28;20028;-82
2021/01/20 01:00:21;;;;;;;140.63;68.10;;;2.30;99.90;;;;;;5056005;28;20073;-82
2021/01/20 01:02:49;;;;;;;146.70;68.93;;;2.30;99.90;;;;;;5053910;28;20024;-82
2021/01/20 01:05:15;;;;;;;146.00;70.67;;;2.30;99.90;;;;;;5055550;28;20031;-83
2021/01/20 01:07:41;;;;;;;142.43;70.50;;;2.40;99.90;;;;;;5036533;28;20108;-82
2021/01/20 01:10:07;;;;;;;141.63;70.27;;;2.40;99.90;;;;;;5035628;28;20562;-83
2021/01/20 01:12:33;;;;;;;148.67;71.93;;;2.40;99.90;;;;;;5035612;28;20025;-83
2021/01/20 01:14:59;;;;;;;147.33;72.00;;;2.40;99.90;;;;;;5053271;28;20040;-82
2021/01/20 01:17:24;;;;;;;141.67;72.00;;;2.40;99.90;;;;;;5053492;28;20040;-82
2021/01/20 01:19:50;;;;;;;136.17;69.23;;;2.40;99.90;;;;;;5035215;28;20020;-83
2021/01/20 01:22:16;;;;;;;149.43;73.57;;;2.40;99.90;;;;;;5062565;28;20025;-83
2021/01/20 01:24:42;;;;;;;141.63;71.07;;;2.40;99.90;;;;;;5072894;28;20071;-83
2021/01/20 01:27:07;;;;;;;140.77;71.97;;;2.40;99.90;;;;;;5055302;28;20028;-83
2021/01/20 01:29:33;;;;;;;146.30;71.07;;;2.40;99.90;;;;;;5055388;28;20052;-83
2021/01/20 01:31:59;;;;;;;137.53;71.23;;;2.50;99.90;;;;;;5057614;28;20096;-82
2021/01/20 01:34:25;;;;;;;142.93;71.57;;;2.50;99.90;;;;;;5035217;28;20087;-83
2021/01/20 01:36:50;;;;;;;143.33;71.37;;;2.50;99.90;;;;;;5046407;28;20036;-82
2021/01/20 01:39:16;;;;;;;141.30;70.93;;;2.50;99.90;;;;;;5055190;28;20016;-83
2021/01/20 01:41:42;;;;;;;144.30;69.93;;;2.50;99.90;;;;;;5073148;28;20078;-82
2021/01/20 01:44:08;;;;;;;136.03;69.17;;;2.50;99.90;;;;;;5072979;28;20028;-83
2021/01/20 01:46:34;;;;;;;148.47;74.23;;;2.40;99.90;;;;;;5067743;28;20033;-83
2021/01/20 01:48:59;;;;;;;138.13;72.07;;;2.40;99.90;;;;;;5047308;28;20059;-83
2021/01/20 01:51:25;;;;;;;143.60;70.57;;;2.40;99.90;;;;;;5054976;28;20036;-83
2021/01/20 01:53:52;;;;;;;147.73;73.60;;;2.40;99.90;;;;;;5054663;28;20035;-83
2021/01/20 01:56:18;;;;;;;137.53;71.40;;;2.40;99.90;;;;;;5054936;28;20021;-83
2021/01/20 01:58:47;;;;;;;143.10;72.03;;;2.40;99.90;;;;;;5072980;28;20032;-83
2021/01/20 02:01:14;;;;;;;143.80;70.77;;;2.40;99.90;;;;;;5072645;28;20111;-83
2021/01/20 02:03:40;;;;;;;137.90;73.43;;;2.40;99.90;;;;;;5072814;28;20033;-83
2021/01/20 02:06:06;;;;;;;154.27;75.13;;;2.40;99.90;;;;;;5053218;28;20075;-83
2021/01/20 02:08:32;;;;;;;151.30;73.73;;;2.40;99.90;;;;;;5052824;28;20399;-83
2021/01/20 02:11:11;;;;;;;148.43;73.60;;;2.40;99.90;;;;;;5052518;28;20035;-83
2021/01/20 02:14:00;;;;;;;150.43;73.73;;;2.40;99.90;;;;;;5034768;28;20029;-83
2021/01/20 02:16:28;;;;;;;146.13;74.10;;;2.40;99.90;;;;;;5021995;28;20029;-83
2021/01/20 02:18:55;;;;;;;145.53;73.00;;;2.40;99.90;;;;;;5063733;28;20027;-83
2021/01/20 02:21:33;;;;;;;143.03;72.20;;;2.40;99.90;;;;;;5054810;28;20082;-83
2021/01/20 02:24:01;;;;;;;139.97;70.47;;;2.40;99.90;;;;;;5072548;28;20051;-83
2021/01/20 02:26:35;;;;;;;146.20;72.23;;;2.50;99.90;;;;;;5054615;28;20050;-82
2021/01/20 02:29:24;;;;;;;144.00;70.90;;;2.50;99.90;;;;;;5054588;28;20064;-83
2021/01/20 02:31:51;;;;;;;143.83;72.30;;;2.60;99.90;;;;;;5054518;28;20031;-83
2021/01/20 02:34:21;;;;;;;138.80;70.80;;;2.60;99.90;;;;;;5076188;28;20052;-83
2021/01/20 02:36:48;;;;;;;137.07;70.73;;;2.60;99.90;;;;;;5076289;28;20036;-83
2021/01/20 02:39:14;;;;;;;135.27;71.43;;;2.50;99.90;;;;;;5076478;28;20020;-83
2021/01/20 02:41:39;;;;;;;145.43;74.47;;;2.40;99.90;;;;;;5076227;28;20051;-84
2021/01/20 02:44:05;;;;;;;147.20;74.83;;;2.40;99.90;;;;;;5076292;28;20389;-84
2021/01/20 02:46:31;;;;;;;146.53;73.73;;;2.40;99.90;;;;;;5058286;28;20020;-83
2021/01/20 02:48:59;;;;;;;153.73;81.00;;;2.40;99.90;;;;;;5075989;28;20025;-83
2021/01/20 02:51:36;;;;;;;158.13;78.23;;;2.40;99.90;;;;;;5058335;28;20123;-83
2021/01/20 02:54:03;;;;;;;161.83;78.47;;;2.40;99.90;;;;;;5057970;28;20031;-84
2021/01/20 02:56:31;;;;;;;166.03;79.20;;;2.40;99.90;;;;;;5058206;28;20036;-84
2021/01/20 02:59:01;;;;;;;162.83;81.33;;;2.30;99.90;;;;;;5041707;28;20029;-83
2021/01/20 03:01:32;;;;;;;152.23;77.60;;;2.30;99.90;;;;;;5038086;28;20025;-83
2021/01/20 03:04:00;;;;;;;160.98;78.93;;;2.30;99.90;;;;;;5038044;28;20025;-84
2021/01/20 03:06:27;;;;;;;162.90;79.70;;;2.30;99.90;;;;;;5038162;28;20032;-84
2021/01/20 03:08:54;;;;;;;158.87;79.27;;;2.30;99.90;;;;;;5055928;28;20028;-84
2021/01/20 03:11:20;;;;;;;153.53;77.30;;;2.30;99.90;;;;;;5037889;28;20025;-84
2021/01/20 03:13:47;;;;;;;158.53;77.93;;;2.30;99.90;;;;;;5071886;28;20036;-84
2021/01/20 03:16:13;;;;;;;151.80;76.77;;;2.30;99.90;;;;;;5057455;28;20020;-84
2021/01/20 03:18:39;;;;;;;165.57;80.83;;;2.30;99.90;;;;;;5056152;28;20033;-84
2021/01/20 03:21:05;;;;;;;156.93;79.80;;;2.30;99.90;;;;;;5057858;28;20043;-84
2021/01/20 03:23:31;;;;;;;160.40;78.10;;;2.20;99.90;;;;;;5057654;28;20479;-83
2021/01/20 03:25:57;;;;;;;161.23;80.60;;;2.30;99.90;;;;;;5057808;28;20027;-84
2021/01/20 03:28:23;;;;;;;160.67;82.40;;;2.30;99.90;;;;;;5057637;28;20634;-83
2021/01/20 03:30:50;;;;;;;158.27;79.33;;;2.30;99.90;;;;;;5052866;28;20025;-84
2021/01/20 03:33:16;;;;;;;151.30;76.57;;;2.30;99.90;;;;;;5037603;28;20029;-83
2021/01/20 03:35:42;;;;;;;151.23;76.53;;;2.30;99.90;;;;;;5037624;28;20032;-84
2021/01/20 03:38:08;;;;;;;150.90;76.00;;;2.30;99.90;;;;;;5019448;28;20106;-83
2021/01/20 03:40:35;;;;;;;161.53;78.17;;;2.40;99.90;;;;;;5039451;28;20080;-84
2021/01/20 03:43:00;;;;;;;149.67;77.80;;;2.40;99.90;;;;;;5031476;28;20029;-84
2021/01/20 03:45:26;;;;;;;154.20;77.83;;;2.40;99.90;;;;;;5054036;28;20040;-83
2021/01/20 03:47:51;;;;;;;151.07;76.73;;;2.40;99.90;;;;;;5035278;28;20033;-84
2021/01/20 03:50:17;;;;;;;157.60;79.43;;;2.40;99.90;;;;;;5017438;28;20030;-84
2021/01/20 03:52:43;;;;;;;153.33;76.37;;;2.40;99.90;;;;;;5035250;28;20037;-84
2021/01/20 03:55:09;;;;;;;162.13;79.43;;;2.40;99.90;;;;;;5017181;28;20037;-84
2021/01/20 03:57:34;;;;;;;153.87;77.87;;;2.40;99.90;;;;;;5017944;28;20030;-84
2021/01/20 04:00:00;;;;;;;145.53;75.10;;;2.40;99.90;;;;;;5037128;28;20040;-84
2021/01/20 04:02:26;;;;;;;157.40;78.77;;;2.30;99.90;;;;;;5037029;28;20029;-84
2021/01/20 04:04:51;;;;;;;163.23;81.27;;;2.20;99.90;;;;;;5054854;28;20103;-84
2021/01/20 04:07:17;;;;;;;154.87;77.97;;;2.20;99.90;;;;;;5037089;28;20429;-84
2021/01/20 04:09:42;;;;;;;147.93;76.80;;;2.30;99.90;;;;;;5036949;28;20408;-84
2021/01/20 04:12:08;;;;;;;155.60;77.23;;;2.30;99.90;;;;;;5036873;28;20029;-84
2021/01/20 04:14:34;;;;;;;149.33;77.83;;;2.30;99.90;;;;;;5036653;28;20059;-84
2021/01/20 04:16:59;;;;;;;148.90;74.63;;;2.30;99.90;;;;;;5036715;28;20025;-84
2021/01/20 04:19:25;;;;;;;149.73;76.60;;;2.30;99.90;;;;;;5054569;28;20029;-84
2021/01/20 04:21:50;;;;;;;155.57;79.30;;;2.30;99.90;;;;;;5054592;28;20024;-83
2021/01/20 04:24:17;;;;;;;156.73;77.90;;;2.30;99.90;;;;;;5036623;28;20032;-84
2021/01/20 04:26:43;;;;;;;155.23;76.17;;;2.30;99.90;;;;;;5036629;28;20029;-84
2021/01/20 04:29:11;;;;;;;152.07;77.90;;;2.30;99.90;;;;;;5054381;28;20096;-84
2021/01/20 04:31:37;;;;;;;155.10;79.80;;;2.40;99.90;;;;;;5036670;28;20040;-83
2021/01/20 04:34:03;;;;;;;158.37;80.07;;;2.40;99.90;;;;;;5053765;28;20033;-83
2021/01/20 04:36:29;;;;;;;156.37;77.67;;;2.40;99.90;;;;;;5021037;28;20049;-84
2021/01/20 04:38:54;;;;;;;147.67;76.10;;;2.40;99.90;;;;;;5036476;28;20029;-84
2021/01/20 04:41:20;;;;;;;157.20;80.40;;;2.50;99.90;;;;;;5036434;28;20123;-84
2021/01/20 04:43:45;;;;;;;152.10;75.90;;;2.50;99.90;;;;;;5054070;28;20108;-84
2021/01/20 04:46:15;;;;;;;155.73;78.10;;;2.50;99.90;;;;;;5054143;28;20060;-84
2021/01/20 04:48:43;;;;;;;147.87;76.13;;;2.50;99.90;;;;;;5036198;28;20036;-84
2021/01/20 04:51:09;;;;;;;153.30;77.67;;;2.50;99.90;;;;;;5036129;28;20120;-84
2021/01/20 04:53:38;;;;;;;152.73;75.83;;;2.50;99.90;;;;;;5036116;28;20029;-84
2021/01/20 04:56:09;;;;;;;150.27;74.50;;;2.50;99.90;;;;;;5035354;28;20020;-84
2021/01/20 04:58:35;;;;;;;158.90;76.30;;;2.50;99.90;;;;;;5053529;28;20029;-84
2021/01/20 05:01:01;;;;;;;155.20;76.90;;;2.40;99.90;;;;;;5053848;28;20064;-84
2021/01/20 05:03:27;;;;;;;154.70;79.43;;;2.50;99.90;;;;;;5073581;28;20055;-84
2021/01/20 05:05:55;;;;;;;161.63;79.13;;;2.50;99.90;;;;;;5055848;28;20050;-83
2021/01/20 05:08:21;;;;;;;147.73;75.27;;;2.50;99.90;;;;;;5055716;28;20027;-84
2021/01/20 05:10:50;;;;;;;160.10;75.70;;;2.50;99.90;;;;;;5055833;28;20111;-83
2021/01/20 05:13:26;;;;;;;160.17;80.47;;;2.50;99.90;;;;;;5073707;28;20029;-84
2021/01/20 05:15:53;;;;;;;165.03;80.87;;;2.50;99.90;;;;;;5055482;28;20035;-84
2021/01/20 05:18:19;;;;;;;152.90;76.43;;;2.50;99.90;;;;;;5066869;28;20021;-84
2021/01/20 05:20:45;;;;;;;160.43;80.50;;;2.60;99.90;;;;;;5038204;28;20035;-85
2021/01/20 05:23:11;;;;;;;160.20;78.63;;;2.60;99.90;;;;;;5053380;28;20070;-84
2021/01/20 05:25:49;;;;;;;156.07;79.80;;;2.60;99.90;;;;;;5053487;28;20087;-85
2021/01/20 05:28:26;;;;;;;142.00;74.07;;;2.60;99.90;;;;;;5049344;28;20119;-84
2021/01/20 05:30:59;;;;;;;148.60;76.67;;;2.60;99.90;;;;;;5073332;28;20025;-84
2021/01/20 05:33:39;;;;;;;155.23;76.30;;;2.60;99.90;;;;;;5055010;28;20074;-85
2021/01/20 05:36:07;;;;;;;159.13;79.27;;;2.60;99.90;;;;;;5044505;28;20067;-84
2021/01/20 05:38:44;;;;;;;153.37;77.27;;;2.60;99.90;;;;;;5053139;28;20116;-85
2021/01/20 05:41:27;;;;;;;163.00;79.80;;;2.60;99.90;;;;;;5034631;28;20079;-84
2021/01/20 05:44:12;;;;;;;159.60;78.17;;;2.60;99.90;;;;;;5035316;28;20032;-84
2021/01/20 05:46:40;;;;;;;148.17;73.27;;;2.60;99.90;;;;;;5053137;28;20025;-85
2021/01/20 05:49:19;;;;;;;157.90;78.37;;;2.50;99.90;;;;;;5053234;28;20490;-86
2021/01/20 05:51:45;;;;;;;136.13;73.87;;;2.50;99.90;;;;;;5035227;28;20434;-85
2021/01/20 05:54:11;;;;;;;149.73;75.50;;;2.60;99.90;;;;;;5035021;28;20028;-85
2021/01/20 05:56:38;;;;;;;148.90;75.77;;;2.60;99.90;;;;;;5035162;28;20536;-85
2021/01/20 05:59:10;;;;;;;148.13;73.07;;;2.60;99.90;;;;;;5035177;28;20025;-85
2021/01/20 06:01:37;;;;;;;141.50;71.43;;;2.60;99.90;;;;;;5035169;28;20059;-85
2021/01/20 06:04:05;;;;;;;145.33;69.90;;;2.70;99.90;;;;;;5035174;28;20159;-85
2021/01/20 06:06:32;;;;;;;146.03;74.00;;;2.70;99.90;;;;;;5054205;28;20032;-85
2021/01/20 06:08:58;;;;;;;149.67;71.80;;;2.70;99.90;;;;;;5056986;28;20505;-85
2021/01/20 06:11:23;;;;;;;150.37;74.00;;;2.70;99.90;;;;;;5039002;28;20021;-85
2021/01/20 06:13:49;;;;;;;147.43;75.40;;;2.70;99.90;;;;;;5056833;28;20032;-85
2021/01/20 06:16:19;;;;;;;145.87;73.20;;;2.70;99.90;;;;;;5056887;28;20449;-85
2021/01/20 06:18:50;;;;;;;148.33;73.97;;;2.70;99.90;;;;;;5039074;28;20017;-85
2021/01/20 06:21:18;;;;;;;146.83;73.43;;;2.70;99.90;;;;;;5039045;28;20029;-84
2021/01/20 06:24:35;;;;;;;147.00;72.67;;;2.70;99.90;;;;;;5038853;28;20057;-85
2021/01/20 06:27:10;;;;;;;144.87;72.93;;;2.70;99.90;;;;;;4940397;29;20027;-85
2021/01/20 06:29:42;;;;;;;143.63;72.40;;;2.70;99.90;;;;;;5035234;28;20135;-84
2021/01/20 06:32:09;;;;;;;136.02;71.00;;;2.70;99.90;;;;;;5038666;28;20378;-83
2021/01/20 06:34:35;;;;;;;149.47;75.23;;;2.70;99.90;;;;;;5038611;28;20029;-84
2021/01/20 06:37:01;;;;;;;144.83;74.20;;;2.60;99.90;;;;;;5045321;28;20391;-85
2021/01/20 06:39:29;;;;;;;155.30;78.07;;;2.60;99.90;;;;;;5058574;28;20025;-85
2021/01/20 06:41:59;;;;;;;153.83;76.60;;;2.60;99.90;;;;;;5058596;28;20097;-85
2021/01/20 06:44:25;;;;;;;151.37;73.87;;;2.60;99.90;;;;;;5058438;28;20033;-85
2021/01/20 06:46:57;;;;;;;132.57;68.67;;;2.60;99.90;;;;;;5076469;28;20552;-85
2021/01/20 06:49:33;;;;;;;133.98;68.72;;;2.70;99.90;;;;;;5050298;28;20124;-84
2021/01/20 06:52:11;;;;;;;135.80;66.27;;;2.70;99.90;;;;;;5041227;28;20036;-85
2021/01/20 06:54:42;;;;;;;124.70;62.63;;;2.80;99.90;;;;;;5065632;28;20074;-85
2021/01/20 06:57:25;;;;;;;125.10;63.30;;;2.80;99.90;;;;;;5058296;28;20024;-85
2021/01/20 07:00:14;;;;;;;126.60;63.03;;;2.90;99.90;;;;;;5056854;28;20487;-85
2021/01/20 07:03:00;;;;;;;141.93;71.17;;;2.90;99.90;;;;;;5055853;28;20070;-84
2021/01/20 07:05:32;;;;;;;137.67;70.03;;;2.90;99.90;;;;;;5037895;28;20025;-84
2021/01/20 07:07:58;;;;;;;145.67;69.83;;;2.90;99.90;;;;;;5055847;28;20387;-85
2021/01/20 07:10:29;;;;;;;128.37;64.37;;;2.90;99.90;;;;;;5043507;28;20033;-85
2021/01/20 07:13:10;;;;;;;149.63;72.40;;;3.00;99.90;;;;;;5057762;28;20028;-84
2021/01/20 07:15:42;;;;;;;158.27;77.47;;;3.00;99.90;;;;;;5039159;28;20056;-84
2021/01/20 07:18:10;;;;;;;150.10;73.77;;;3.00;99.90;;;;;;5059981;28;20025;-85
2021/01/20 07:20:36;;;;;;;154.57;75.33;;;3.00;99.90;;;;;;5057237;28;20060;-84
2021/01/20 07:23:01;;;;;;;161.50;77.70;;;3.00;99.90;;;;;;5075004;28;20090;-85
2021/01/20 07:25:27;;;;;;;149.90;76.33;;;3.00;99.90;;;;;;5057306;28;20043;-84
2021/01/20 07:27:53;;;;;;;159.40;77.20;;;3.00;99.90;;;;;;5060812;28;20064;-85
2021/01/20 07:30:20;;;;;;;159.80;78.73;;;3.00;99.90;;;;;;5041882;28;20036;-85
2021/01/20 07:32:45;;;;;;;164.60;78.20;;;3.00;99.90;;;;;;5055862;28;20037;-84
2021/01/20 07:35:26;;;;;;;173.70;81.23;;;3.00;99.90;;;;;;5067964;28;20086;-85
2021/01/20 07:38:06;;;;;;;174.60;85.97;;;2.90;99.90;;;;;;5056495;28;20044;-84
2021/01/20 07:40:33;;;;;;;169.80;84.97;;;2.90;99.90;;;;;;5056873;28;20493;-83
2021/01/20 07:43:00;;;;;;;167.07;82.20;;;2.90;99.90;;;;;;5074566;28;20687;-84
2021/01/20 07:45:34;;;;;;;180.40;85.87;;;2.80;99.90;;;;;;5056688;28;20648;-85
2021/01/20 07:48:01;;;;;;;171.53;85.50;;;2.80;99.90;;;;;;5070135;28;20062;-85
2021/01/20 07:50:37;;;;;;;177.37;84.60;;;2.80;99.90;;;;;;5074773;28;20048;-84
2021/01/20 07:53:04;;;;;;;177.60;88.03;;;2.80;99.90;;;;;;5075118;28;20025;-85
2021/01/20 07:55:30;;;;;;;185.70;89.00;;;2.80;99.90;;;;;;5057088;28;20025;-78
2021/01/20 07:57:57;;;;;;;174.00;88.07;;;2.80;99.90;;;;;;5046067;28;20129;-78
2021/01/20 08:00:22;;;;;;;173.90;87.13;;;2.90;99.90;;;;;;5053791;28;20028;-79
2021/01/20 08:02:49;;;;;;;177.40;88.27;;;3.00;99.90;;;;;;5061433;28;20021;-78
2021/01/20 08:05:15;;;;;;;168.10;86.60;;;3.00;99.90;;;;;;5035564;28;20032;-79
2021/01/20 08:07:41;;;;;;;172.27;86.23;;;3.00;99.90;;;;;;5053435;28;20050;-79
2021/01/20 08:10:18;;;;;;;174.97;87.33;;;3.00;99.90;;;;;;5041025;28;20024;-79
2021/01/20 08:12:44;;;;;;;173.50;87.93;;;2.90;99.90;;;;;;5033304;28;20101;-79
2021/01/20 08:15:10;;;;;;;174.50;87.57;;;2.90;99.90;;;;;;5064683;28;20417;-79
2021/01/20 08:17:36;;;;;;;171.83;85.53;;;2.90;99.90;;;;;;5042556;28;20028;-79
2021/01/20 08:20:03;;;;;;;175.10;90.00;;;2.90;99.90;;;;;;5037219;28;20029;-79
2021/01/20 08:22:29;;;;;;;171.43;86.10;;;3.00;99.90;;;;;;5058986;28;21350;-79
2021/01/20 08:24:55;;;;;;;173.97;87.77;;;3.00;99.90;;;;;;5052018;28;20031;-79
2021/01/20 08:27:39;;;;;;;172.70;84.53;;;3.00;99.90;;;;;;5045080;28;20023;-85
2021/01/20 08:30:06;;;;;;;171.73;84.70;;;3.00;99.90;;;;;;5057624;28;20116;-85
2021/01/20 08:32:32;;;;;;;172.90;86.13;;;3.00;99.90;;;;;;5052918;28;20041;-86
2021/01/20 08:34:59;;;;;;;166.77;85.27;;;3.10;99.90;;;;;;5060438;28;20383;-85
2021/01/20 08:37:39;;;;;;;183.47;87.73;;;3.10;99.90;;;;;;5058634;28;20041;-87
2021/01/20 08:40:06;;;;;;;165.90;82.60;;;3.10;99.90;;;;;;5059438;28;20044;-85
2021/01/20 08:42:35;;;;;;;169.20;87.10;;;3.10;99.90;;;;;;5044325;28;20052;-85
2021/01/20 08:45:16;;;;;;;172.57;87.60;;;3.20;99.90;;;;;;5067150;28;20115;-83
2021/01/20 08:47:56;;;;;;;176.43;86.50;;;3.20;99.90;;;;;;5055918;28;20034;-84
2021/01/20 08:50:32;;;;;;;173.87;84.80;;;3.20;99.90;;;;;;5040799;28;20051;-84
2021/01/20 08:53:12;;;;;;;173.00;84.90;;;3.20;99.90;;;;;;5065392;28;20031;-85
2021/01/20 08:55:54;;;;;;;167.60;84.17;;;3.20;99.90;;;;;;5082880;28;20028;-85
2021/01/20 08:58:27;;;;;;;158.98;79.80;;;3.20;99.90;;;;;;5060421;28;20021;-86
2021/01/20 09:01:04;;;;;;;177.70;86.17;;;3.20;99.90;;;;;;5038993;28;20031;-84
2021/01/20 09:03:31;;;;;;;166.13;80.80;;;3.20;99.90;;;;;;5032631;28;20814;-83
2021/01/20 09:06:02;;;;;;;172.23;83.93;;;3.30;99.90;;;;;;5031239;28;20402;-85
2021/01/20 09:08:35;;;;;;;168.70;84.60;;;3.30;99.90;;;;;;5031189;28;20036;-84
2021/01/20 09:11:02;;;;;;;169.13;84.17;;;3.40;99.90;;;;;;5030703;28;20383;-83
2021/01/20 09:13:28;;;;;;;153.00;76.77;;;3.40;99.90;;;;;;5048452;28;20021;-86
2021/01/20 09:15:55;;;;;;;154.57;77.57;;;3.50;99.90;;;;;;5059969;28;20048;-82
2021/01/20 09:18:22;;;;;;;153.90;77.37;;;3.50;99.90;;;;;;5036422;28;20478;-84
2021/01/20 09:20:47;;;;;;;146.73;71.37;;;3.60;99.90;;;;;;5047624;28;20021;-84
2021/01/20 09:23:13;;;;;;;142.40;72.73;;;3.60;99.90;;;;;;5039508;28;20024;-82
2021/01/20 09:25:39;;;;;;;144.77;73.00;;;3.70;99.90;;;;;;5051993;28;20517;-89
2021/01/20 09:28:05;;;;;;;148.80;72.87;;;3.70;99.90;;;;;;5040023;28;20089;-88
2021/01/20 09:30:32;;;;;;;142.10;70.23;;;3.80;99.90;;;;;;5050175;28;20048;-88
2021/01/20 09:32:58;;;;;;;140.67;71.87;;;3.80;99.90;;;;;;5041299;28;20033;-87
2021/01/20 09:35:23;;;;;;;149.80;72.30;;;3.90;99.90;;;;;;5030251;28;20017;-87
2021/01/20 09:37:53;;;;;;;144.67;71.87;;;3.90;99.90;;;;;;5034937;28;20399;-87
2021/01/20 09:40:20;;;;;;;144.40;71.27;;;3.90;99.90;;;;;;5037022;28;20381;-81
2021/01/20 09:42:49;;;;;;;158.40;78.07;;;4.00;99.90;;;;;;5044917;28;20029;-87
2021/01/20 09:45:27;;;;;;;329.13;165.50;;;4.10;99.90;;;;;;5036220;28;20111;-87
2021/01/20 09:47:54;;;;;;;157.40;78.47;;;4.20;99.90;;;;;;5040898;28;20654;-85
2021/01/20 09:50:19;;;;;;;149.33;74.67;;;4.20;99.90;;;;;;5055532;28;20027;-85
2021/01/20 09:52:47;;;;;;;153.03;74.77;;;4.10;99.90;;;;;;5058418;28;20028;-86
2021/01/20 09:55:14;;;;;;;153.30;75.80;;;4.10;99.90;;;;;;5038106;28;20128;-86
2021/01/20 09:57:40;;;;;;;149.20;74.75;;;4.10;99.90;;;;;;5029641;28;20025;-83
2021/01/20 10:00:09;;;;;;;147.70;72.85;;;4.10;99.90;;;;;;5028750;28;20033;-83
2021/01/20 10:02:37;;;;;;;147.35;72.80;;;4.10;99.90;;;;;;5049081;28;20426;-85
2021/01/20 10:05:03;;;;;;;145.17;72.87;;;4.10;99.90;;;;;;5048993;28;20020;-87
2021/01/20 10:07:29;;;;;;;149.53;76.23;;;4.10;99.90;;;;;;5049446;28;20052;-86
2021/01/20 10:09:55;;;;;;;149.85;76.70;;;4.10;99.90;;;;;;5049405;28;20064;-89
2021/01/20 10:12:20;;;;;;;156.95;77.55;;;4.10;99.90;;;;;;5055414;28;20029;-88
2021/01/20 10:14:47;;;;;;;156.27;78.10;;;4.00;99.90;;;;;;5054910;28;20025;-89
2021/01/20 10:17:13;;;;;;;164.07;78.83;;;4.00;99.90;;;;;;5055798;28;20020;-86
2021/01/20 10:19:38;;;;;;;154.37;76.60;;;4.00;99.90;;;;;;5055184;28;20103;-89
2021/01/20 10:22:04;;;;;;;158.00;75.83;;;4.00;99.90;;;;;;5073184;28;20048;-88
2021/01/20 10:24:30;;;;;;;159.87;81.20;;;4.00;99.90;;;;;;5054358;28;20028;-89
2021/01/20 10:26:56;;;;;;;157.37;77.10;;;4.00;99.90;;;;;;5036227;28;20387;-88
2021/01/20 10:29:22;;;;;;;149.63;74.03;;;4.10;99.90;;;;;;5053424;28;20040;-87
2021/01/20 10:31:47;;;;;;;151.40;76.90;;;4.10;99.90;;;;;;5054420;28;20028;-83
2021/01/20 10:34:13;;;;;;;147.67;74.90;;;4.20;99.90;;;;;;5052410;28;20157;-82
2021/01/20 10:36:40;;;;;;;149.15;75.80;;;4.20;99.90;;;;;;5072015;28;20067;-82
2021/01/20 10:39:08;;;;;;;154.27;76.10;;;4.20;99.90;;;;;;5054464;28;20031;-87
2021/01/20 10:41:33;;;;;;;160.30;78.50;;;4.20;99.90;;;;;;5053818;28;20032;-81
2021/01/20 10:43:59;;;;;;;162.80;79.03;;;4.20;99.90;;;;;;5045796;28;20440;-83
2021/01/20 10:46:26;;;;;;;163.73;80.53;;;4.20;99.90;;;;;;5046491;28;20040;-83
2021/01/20 10:48:56;;;;;;;160.70;79.30;;;4.30;99.90;;;;;;5039950;28;20704;-83
2021/01/20 10:51:24;;;;;;;154.50;79.27;;;4.30;99.90;;;;;;5049339;28;20111;-83
2021/01/20 10:53:50;;;;;;;144.70;75.17;;;4.30;99.90;;;;;;5050413;28;20029;-86
2021/01/20 10:56:16;;;;;;;134.73;67.93;;;4.30;99.90;;;;;;5071819;28;20017;-86
2021/01/20 10:58:42;;;;;;;117.13;59.47;;;4.40;99.90;;;;;;5052607;28;20023;-86
2021/01/20 11:01:08;;;;;;;106.37;51.13;;;4.40;99.90;;;;;;5050476;28;20348;-86
2021/01/20 11:03:34;;;;;;;102.25;48.45;;;4.40;99.90;;;;;;5041153;28;20099;-86
2021/01/20 11:06:18;;;;;;;102.77;49.07;;;4.30;99.90;;;;;;5052061;28;20028;-86
2021/01/20 11:08:44;;;;;;;99.00;48.40;;;4.30;99.90;;;;;;5050777;28;20039;-87
2021/01/20 11:11:12;;;;;;;111.23;55.17;;;4.20;99.90;;;;;;5047360;28;20108;-82
2021/01/20 11:13:46;;;;;;;120.50;57.65;;;4.20;99.90;;;;;;5055429;28;20107;-84
2021/01/20 11:16:12;;;;;;;132.93;61.15;;;4.20;99.90;;;;;;5048707;28;20032;-85
2021/01/20 11:18:38;;;;;;;142.13;66.77;;;4.20;99.90;;;;;;5048707;28;20025;-82
2021/01/20 11:21:04;;;;;;;138.17;67.70;;;4.20;99.90;;;;;;5068139;28;20079;-83
2021/01/20 11:23:36;;;;;;;134.10;66.13;;;4.30;99.90;;;;;;5046559;28;20036;-84
2021/01/20 11:26:06;;;;;;;136.98;66.00;;;4.30;99.90;;;;;;5050708;28;20487;-85
2021/01/20 11:28:33;;;;;;;124.15;60.45;;;4.30;99.90;;;;;;5055123;28;20016;-87
2021/01/20 11:30:59;;;;;;;99.10;50.30;;;4.20;99.90;;;;;;5051186;28;20040;-83
2021/01/20 11:33:25;;;;;;;105.15;51.00;;;4.20;99.90;;;;;;5050549;28;20067;-83
2021/01/20 11:35:51;;;;;;;92.63;46.15;;;4.20;99.90;;;;;;5087281;28;20474;-86
2021/01/20 11:38:17;;;;;;;94.88;50.38;;;4.30;99.90;;;;;;5068795;28;20048;-87
2021/01/20 11:40:42;;;;;;;97.95;47.85;;;4.20;99.90;;;;;;5040116;28;20493;-84
2021/01/20 11:43:08;;;;;;;90.35;44.60;;;4.30;99.90;;;;;;5050552;28;20658;-82
2021/01/20 11:45:35;;;;;;;93.72;45.55;;;4.30;99.90;;;;;;5052435;28;20453;-82
2021/01/20 11:48:03;;;;;;;89.43;43.92;;;4.30;99.90;;;;;;5059023;28;20036;-82
2021/01/20 11:50:29;;;;;;;89.13;44.72;;;4.20;99.90;;;;;;5047038;28;20112;-84
2021/01/20 11:52:55;;;;;;;101.72;48.40;;;4.20;99.90;;;;;;5051702;28;20688;-81
2021/01/20 11:55:22;;;;;;;91.43;45.33;;;4.20;99.90;;;;;;5070089;28;20032;-83
2021/01/20 11:57:48;;;;;;;92.17;47.47;;;4.20;99.90;;;;;;5070826;28;20024;-81
2021/01/20 12:00:15;;;;;;;98.17;47.97;;;4.30;99.90;;;;;;5062750;28;20053;-80
2021/01/20 12:02:41;;;;;;;103.90;52.53;;;4.30;99.90;;;;;;5066657;28;20025;-81
2021/01/20 12:05:10;;;;;;;112.78;58.13;;;4.30;99.90;;;;;;5052285;28;20055;-81
2021/01/20 12:07:36;;;;;;;112.88;58.63;;;4.30;99.90;;;;;;5039642;28;20158;-81
2021/01/20 12:10:02;;;;;;;117.83;58.83;;;4.30;99.90;;;;;;5057325;28;20519;-88
2021/01/20 12:12:28;;;;;;;107.13;56.57;;;4.30;99.90;;;;;;5057789;28;20043;-88
2021/01/20 12:14:54;;;;;;;113.73;55.63;;;4.30;99.90;;;;;;5057836;28;20033;-89
2021/01/20 12:17:19;;;;;;;124.07;55.03;;;4.30;99.90;;;;;;5047416;28;20025;-88
2021/01/20 12:19:45;;;;;;;113.60;56.47;;;4.30;99.90;;;;;;5037307;28;20025;-87
2021/01/20 12:22:11;;;;;;;106.63;52.67;;;4.30;99.90;;;;;;5036853;28;20025;-89
2021/01/20 12:24:36;;;;;;;104.07;53.37;;;4.20;99.90;;;;;;5036897;28;20032;-88
2021/01/20 12:27:02;;;;;;;95.63;49.60;;;4.20;99.90;;;;;;5037090;28;20056;-88
2021/01/20 12:29:28;;;;;;;109.00;50.30;;;4.20;99.90;;;;;;5054619;28;20583;-88
2021/01/20 12:31:53;;;;;;;109.00;52.63;;;4.30;99.90;;;;;;5036808;28;20025;-88
2021/01/20 12:34:19;;;;;;;100.95;51.42;;;4.30;99.90;;;;;;5054400;28;20029;-87